sensor_id;sensor_type;location;lat;lon;timestamp;P1;durP1;ratioP1;P2;durP2;ratioP2
22240;SDS011;11289;52.524;13.694;2022-09-09T00:11:48;9.73;;;8.00;;
22240;SDS011;11289;52.524;13.694;2022-09-09T00:14:38;8.68;;;7.75;;
22240;SDS011;11289;52.524;13.694;2022-09-09T00:17:15;11.73;;;8.88;;
22240;SDS011;11289;52.524;13.694;2022-09-09T00:19:56;9.05;;;8.13;;
22240;SDS011;11289;52.524;13.694;2022-09-09T00:22:27;8.27;;;7.25;;
22240;SDS011;11289;52.524;13.694;2022-09-09T00:25:03;7.85;;;7.15;;
22240;SDS011;11289;52.524;13.694;2022-09-09T00:27:40;8.48;;;7.63;;
22240;SDS011;11289;52.524;13.694;2022-09-09T00:30:14;8.68;;;7.78;;
22240;SDS011;11289;52.524;13.694;2022-09-09T00:32:48;7.43;;;6.70;;
22240;SDS011;11289;52.524;13.694;2022-09-09T00:35:37;7.80;;;7.03;;
22240;SDS011;11289;52.524;13.694;2022-09-09T00:38:49;7.97;;;7.18;;
22240;SDS011;11289;52.524;13.694;2022-09-09T00:43:39;8.15;;;6.60;;
22240;SDS011;11289;52.524;13.694;2022-09-09T00:55:19;6.75;;;5.80;;
22240;SDS011;11289;52.524;13.694;2022-09-09T00:57:43;6.93;;;6.22;;
22240;SDS011;11289;52.524;13.694;2022-09-09T01:08:58;5.80;;;5.25;;
22240;SDS011;11289;52.524;13.694;2022-09-09T01:10:59;6.45;;;5.85;;
22240;SDS011;11289;52.524;13.694;2022-09-09T01:13:28;6.60;;;5.57;;
22240;SDS011;11289;52.524;13.694;2022-09-09T01:15:56;5.75;;;5.25;;
22240;SDS011;11289;52.524;13.694;2022-09-09T01:18:32;7.13;;;5.15;;
22240;SDS011;11289;52.524;13.694;2022-09-09T01:28:48;5.47;;;4.97;;
22240;SDS011;11289;52.524;13.694;2022-09-09T01:31:19;5.00;;;4.50;;
22240;SDS011;11289;52.524;13.694;2022-09-09T01:33:47;6.05;;;5.45;;
22240;SDS011;11289;52.524;13.694;2022-09-09T01:36:17;5.30;;;4.60;;
22240;SDS011;11289;52.524;13.694;2022-09-09T01:38:46;5.78;;;4.50;;
22240;SDS011;11289;52.524;13.694;2022-09-09T01:41:11;4.90;;;4.40;;
22240;SDS011;11289;52.524;13.694;2022-09-09T01:43:37;7.80;;;4.47;;
22240;SDS011;11289;52.524;13.694;2022-09-09T01:46:02;5.35;;;4.85;;
22240;SDS011;11289;52.524;13.694;2022-09-09T01:48:28;5.90;;;4.63;;
22240;SDS011;11289;52.524;13.694;2022-09-09T01:50:54;4.57;;;3.90;;
22240;SDS011;11289;52.524;13.694;2022-09-09T01:53:21;5.03;;;4.53;;
22240;SDS011;11289;52.524;13.694;2022-09-09T01:56:05;6.22;;;4.32;;
22240;SDS011;11289;52.524;13.694;2022-09-09T02:04:48;5.30;;;4.05;;
22240;SDS011;11289;52.524;13.694;2022-09-09T02:09:52;5.18;;;4.05;;
22240;SDS011;11289;52.524;13.694;2022-09-09T02:12:23;4.75;;;4.35;;
22240;SDS011;11289;52.524;13.694;2022-09-09T02:14:55;5.15;;;4.65;;
22240;SDS011;11289;52.524;13.694;2022-09-09T02:17:28;5.33;;;4.83;;
22240;SDS011;11289;52.524;13.694;2022-09-09T02:22:28;5.20;;;4.40;;
22240;SDS011;11289;52.524;13.694;2022-09-09T02:24:56;5.63;;;5.00;;
22240;SDS011;11289;52.524;13.694;2022-09-09T02:27:24;7.57;;;5.45;;
22240;SDS011;11289;52.524;13.694;2022-09-09T02:29:51;5.13;;;4.63;;
22240;SDS011;11289;52.524;13.694;2022-09-09T02:32:19;5.22;;;4.60;;
22240;SDS011;11289;52.524;13.694;2022-09-09T02:34:51;5.57;;;5.00;;
22240;SDS011;11289;52.524;13.694;2022-09-09T02:37:21;5.88;;;5.03;;
22240;SDS011;11289;52.524;13.694;2022-09-09T02:39:53;4.70;;;4.22;;
22240;SDS011;11289;52.524;13.694;2022-09-09T02:42:19;5.93;;;5.28;;
22240;SDS011;11289;52.524;13.694;2022-09-09T02:44:44;6.35;;;4.68;;
22240;SDS011;11289;52.524;13.694;2022-09-09T02:50:15;6.40;;;5.28;;
22240;SDS011;11289;52.524;13.694;2022-09-09T02:58:12;7.88;;;5.40;;
22240;SDS011;11289;52.524;13.694;2022-09-09T03:00:48;6.28;;;5.55;;
22240;SDS011;11289;52.524;13.694;2022-09-09T03:03:15;7.65;;;5.88;;
22240;SDS011;11289;52.524;13.694;2022-09-09T03:05:42;6.97;;;6.28;;
22240;SDS011;11289;52.524;13.694;2022-09-09T03:08:08;7.15;;;5.00;;
22240;SDS011;11289;52.524;13.694;2022-09-09T03:10:34;6.65;;;5.80;;
22240;SDS011;11289;52.524;13.694;2022-09-09T03:13:00;5.93;;;5.30;;
22240;SDS011;11289;52.524;13.694;2022-09-09T03:15:26;8.35;;;5.55;;
22240;SDS011;11289;52.524;13.694;2022-09-09T03:17:56;6.68;;;5.97;;
22240;SDS011;11289;52.524;13.694;2022-09-09T03:20:22;6.85;;;6.13;;
22240;SDS011;11289;52.524;13.694;2022-09-09T03:22:48;6.90;;;5.50;;
22240;SDS011;11289;52.524;13.694;2022-09-09T03:25:14;6.30;;;4.65;;
22240;SDS011;11289;52.524;13.694;2022-09-09T03:27:40;6.30;;;5.32;;
22240;SDS011;11289;52.524;13.694;2022-09-09T03:30:05;5.97;;;5.32;;
22240;SDS011;11289;52.524;13.694;2022-09-09T03:32:31;6.50;;;5.80;;
22240;SDS011;11289;52.524;13.694;2022-09-09T03:34:57;6.60;;;5.90;;
22240;SDS011;11289;52.524;13.694;2022-09-09T03:37:22;6.25;;;5.30;;
22240;SDS011;11289;52.524;13.694;2022-09-09T03:39:47;7.15;;;6.00;;
22240;SDS011;11289;52.524;13.694;2022-09-09T03:42:13;6.35;;;5.00;;
22240;SDS011;11289;52.524;13.694;2022-09-09T03:44:40;6.63;;;5.90;;
22240;SDS011;11289;52.524;13.694;2022-09-09T03:47:06;7.25;;;6.13;;
22240;SDS011;11289;52.524;13.694;2022-09-09T03:49:32;7.30;;;6.30;;
22240;SDS011;11289;52.524;13.694;2022-09-09T03:51:57;7.13;;;6.30;;
22240;SDS011;11289;52.524;13.694;2022-09-09T03:54:24;7.22;;;5.75;;
22240;SDS011;11289;52.524;13.694;2022-09-09T03:56:50;7.53;;;6.28;;
22240;SDS011;11289;52.524;13.694;2022-09-09T03:59:16;6.78;;;6.10;;
22240;SDS011;11289;52.524;13.694;2022-09-09T04:01:41;6.82;;;6.13;;
22240;SDS011;11289;52.524;13.694;2022-09-09T04:04:07;6.18;;;5.53;;
22240;SDS011;11289;52.524;13.694;2022-09-09T04:06:32;5.75;;;5.10;;
22240;SDS011;11289;52.524;13.694;2022-09-09T04:08:57;7.03;;;6.32;;
22240;SDS011;11289;52.524;13.694;2022-09-09T04:11:23;6.57;;;5.85;;
22240;SDS011;11289;52.524;13.694;2022-09-09T04:13:48;7.22;;;6.00;;
22240;SDS011;11289;52.524;13.694;2022-09-09T04:16:14;7.28;;;5.78;;
22240;SDS011;11289;52.524;13.694;2022-09-09T04:18:40;7.53;;;6.82;;
22240;SDS011;11289;52.524;13.694;2022-09-09T04:21:06;7.00;;;6.30;;
22240;SDS011;11289;52.524;13.694;2022-09-09T04:23:33;8.48;;;6.53;;
22240;SDS011;11289;52.524;13.694;2022-09-09T04:25:59;7.20;;;6.25;;
22240;SDS011;11289;52.524;13.694;2022-09-09T04:28:27;6.68;;;5.60;;
22240;SDS011;11289;52.524;13.694;2022-09-09T04:30:53;6.05;;;5.40;;
22240;SDS011;11289;52.524;13.694;2022-09-09T04:33:19;6.95;;;6.25;;
22240;SDS011;11289;52.524;13.694;2022-09-09T04:35:49;8.13;;;6.85;;
22240;SDS011;11289;52.524;13.694;2022-09-09T04:38:15;7.13;;;5.38;;
22240;SDS011;11289;52.524;13.694;2022-09-09T04:40:51;7.18;;;5.57;;
22240;SDS011;11289;52.524;13.694;2022-09-09T04:43:17;6.40;;;5.70;;
22240;SDS011;11289;52.524;13.694;2022-09-09T04:45:43;7.22;;;5.60;;
22240;SDS011;11289;52.524;13.694;2022-09-09T04:48:11;6.53;;;5.47;;
22240;SDS011;11289;52.524;13.694;2022-09-09T04:50:37;5.90;;;5.22;;
22240;SDS011;11289;52.524;13.694;2022-09-09T04:53:02;6.50;;;5.25;;
22240;SDS011;11289;52.524;13.694;2022-09-09T04:55:30;5.57;;;4.68;;
22240;SDS011;11289;52.524;13.694;2022-09-09T04:57:56;7.43;;;5.63;;
22240;SDS011;11289;52.524;13.694;2022-09-09T05:00:22;6.20;;;5.57;;
22240;SDS011;11289;52.524;13.694;2022-09-09T05:02:48;7.65;;;6.40;;
22240;SDS011;11289;52.524;13.694;2022-09-09T05:05:13;8.73;;;6.10;;
22240;SDS011;11289;52.524;13.694;2022-09-09T05:07:38;9.55;;;5.93;;
22240;SDS011;11289;52.524;13.694;2022-09-09T05:10:04;10.50;;;7.18;;
22240;SDS011;11289;52.524;13.694;2022-09-09T05:12:30;12.27;;;9.07;;
22240;SDS011;11289;52.524;13.694;2022-09-09T05:14:56;18.83;;;12.27;;
22240;SDS011;11289;52.524;13.694;2022-09-09T05:17:22;17.75;;;13.13;;
22240;SDS011;11289;52.524;13.694;2022-09-09T05:19:48;30.48;;;19.20;;
22240;SDS011;11289;52.524;13.694;2022-09-09T05:22:18;42.95;;;26.60;;
22240;SDS011;11289;52.524;13.694;2022-09-09T05:24:45;43.40;;;28.30;;
22240;SDS011;11289;52.524;13.694;2022-09-09T05:27:11;46.67;;;30.85;;
22240;SDS011;11289;52.524;13.694;2022-09-09T05:29:37;42.20;;;28.98;;
22240;SDS011;11289;52.524;13.694;2022-09-09T05:32:03;18.38;;;14.45;;
22240;SDS011;11289;52.524;13.694;2022-09-09T05:34:29;22.52;;;16.25;;
22240;SDS011;11289;52.524;13.694;2022-09-09T05:36:54;23.20;;;13.40;;
22240;SDS011;11289;52.524;13.694;2022-09-09T05:39:20;16.17;;;11.88;;
22240;SDS011;11289;52.524;13.694;2022-09-09T05:41:45;13.65;;;11.45;;
22240;SDS011;11289;52.524;13.694;2022-09-09T05:44:11;13.93;;;10.50;;
22240;SDS011;11289;52.524;13.694;2022-09-09T05:46:36;11.57;;;8.48;;
22240;SDS011;11289;52.524;13.694;2022-09-09T05:49:02;8.75;;;7.85;;
22240;SDS011;11289;52.524;13.694;2022-09-09T05:51:30;9.85;;;7.93;;
22240;SDS011;11289;52.524;13.694;2022-09-09T05:53:56;10.55;;;6.95;;
22240;SDS011;11289;52.524;13.694;2022-09-09T05:56:24;8.32;;;7.40;;
22240;SDS011;11289;52.524;13.694;2022-09-09T05:58:52;9.35;;;7.88;;
22240;SDS011;11289;52.524;13.694;2022-09-09T06:01:23;8.88;;;6.80;;
22240;SDS011;11289;52.524;13.694;2022-09-09T06:03:51;10.55;;;7.15;;
22240;SDS011;11289;52.524;13.694;2022-09-09T06:06:18;9.88;;;7.97;;
22240;SDS011;11289;52.524;13.694;2022-09-09T06:08:50;8.73;;;7.82;;
22240;SDS011;11289;52.524;13.694;2022-09-09T06:11:21;10.30;;;7.85;;
22240;SDS011;11289;52.524;13.694;2022-09-09T06:13:49;9.50;;;8.02;;
22240;SDS011;11289;52.524;13.694;2022-09-09T06:16:18;7.45;;;6.10;;
22240;SDS011;11289;52.524;13.694;2022-09-09T06:18:45;8.38;;;7.57;;
22240;SDS011;11289;52.524;13.694;2022-09-09T06:21:17;8.52;;;7.20;;
22240;SDS011;11289;52.524;13.694;2022-09-09T06:23:45;7.05;;;6.35;;
22240;SDS011;11289;52.524;13.694;2022-09-09T06:26:15;9.00;;;6.20;;
22240;SDS011;11289;52.524;13.694;2022-09-09T06:28:43;7.70;;;6.75;;
22240;SDS011;11289;52.524;13.694;2022-09-09T06:31:11;7.88;;;6.95;;
22240;SDS011;11289;52.524;13.694;2022-09-09T06:33:39;7.85;;;6.25;;
22240;SDS011;11289;52.524;13.694;2022-09-09T06:36:12;7.68;;;5.78;;
22240;SDS011;11289;52.524;13.694;2022-09-09T06:38:42;8.05;;;5.53;;
22240;SDS011;11289;52.524;13.694;2022-09-09T06:41:09;6.43;;;4.55;;
22240;SDS011;11289;52.524;13.694;2022-09-09T06:43:35;6.18;;;4.45;;
22240;SDS011;11289;52.524;13.694;2022-09-09T06:46:05;6.03;;;4.90;;
22240;SDS011;11289;52.524;13.694;2022-09-09T06:48:35;7.82;;;4.93;;
22240;SDS011;11289;52.524;13.694;2022-09-09T06:51:09;6.70;;;4.38;;
22240;SDS011;11289;52.524;13.694;2022-09-09T06:53:36;4.70;;;3.92;;
22240;SDS011;11289;52.524;13.694;2022-09-09T06:56:17;5.25;;;4.18;;
22240;SDS011;11289;52.524;13.694;2022-09-09T06:58:43;6.22;;;4.68;;
22240;SDS011;11289;52.524;13.694;2022-09-09T07:01:12;5.45;;;3.85;;
22240;SDS011;11289;52.524;13.694;2022-09-09T07:03:40;6.57;;;4.35;;
22240;SDS011;11289;52.524;13.694;2022-09-09T07:06:07;5.43;;;4.55;;
22240;SDS011;11289;52.524;13.694;2022-09-09T07:08:39;4.38;;;3.95;;
22240;SDS011;11289;52.524;13.694;2022-09-09T07:11:06;5.15;;;3.60;;
22240;SDS011;11289;52.524;13.694;2022-09-09T07:13:33;7.40;;;3.45;;
22240;SDS011;11289;52.524;13.694;2022-09-09T07:16:09;4.03;;;3.53;;
22240;SDS011;11289;52.524;13.694;2022-09-09T07:18:36;5.85;;;4.03;;
22240;SDS011;11289;52.524;13.694;2022-09-09T07:21:02;7.53;;;3.35;;
22240;SDS011;11289;52.524;13.694;2022-09-09T07:23:29;5.68;;;2.88;;
22240;SDS011;11289;52.524;13.694;2022-09-09T07:25:55;4.10;;;3.00;;
22240;SDS011;11289;52.524;13.694;2022-09-09T07:28:21;4.25;;;2.90;;
22240;SDS011;11289;52.524;13.694;2022-09-09T07:30:57;5.47;;;2.83;;
22240;SDS011;11289;52.524;13.694;2022-09-09T07:33:24;4.13;;;2.40;;
22240;SDS011;11289;52.524;13.694;2022-09-09T07:35:51;5.15;;;3.10;;
22240;SDS011;11289;52.524;13.694;2022-09-09T07:38:16;5.18;;;3.17;;
22240;SDS011;11289;52.524;13.694;2022-09-09T07:40:42;5.78;;;2.58;;
22240;SDS011;11289;52.524;13.694;2022-09-09T07:43:08;4.95;;;2.65;;
22240;SDS011;11289;52.524;13.694;2022-09-09T07:45:34;4.47;;;2.65;;
22240;SDS011;11289;52.524;13.694;2022-09-09T07:48:00;5.88;;;2.28;;
22240;SDS011;11289;52.524;13.694;2022-09-09T07:50:26;3.10;;;2.25;;
22240;SDS011;11289;52.524;13.694;2022-09-09T07:52:52;7.10;;;2.88;;
22240;SDS011;11289;52.524;13.694;2022-09-09T07:55:18;5.35;;;1.95;;
22240;SDS011;11289;52.524;13.694;2022-09-09T07:57:50;3.75;;;2.42;;
22240;SDS011;11289;52.524;13.694;2022-09-09T08:00:16;4.50;;;2.40;;
22240;SDS011;11289;52.524;13.694;2022-09-09T08:02:41;5.70;;;1.95;;
22240;SDS011;11289;52.524;13.694;2022-09-09T08:05:06;2.70;;;1.60;;
22240;SDS011;11289;52.524;13.694;2022-09-09T08:07:32;4.13;;;2.10;;
22240;SDS011;11289;52.524;13.694;2022-09-09T08:09:57;3.70;;;1.83;;
22240;SDS011;11289;52.524;13.694;2022-09-09T08:12:23;4.95;;;2.45;;
22240;SDS011;11289;52.524;13.694;2022-09-09T08:14:48;6.32;;;1.60;;
22240;SDS011;11289;52.524;13.694;2022-09-09T08:17:14;3.60;;;1.90;;
22240;SDS011;11289;52.524;13.694;2022-09-09T08:19:39;3.13;;;1.55;;
22240;SDS011;11289;52.524;13.694;2022-09-09T08:22:05;5.70;;;2.83;;
22240;SDS011;11289;52.524;13.694;2022-09-09T08:24:30;4.78;;;1.88;;
22240;SDS011;11289;52.524;13.694;2022-09-09T08:26:56;5.25;;;1.63;;
22240;SDS011;11289;52.524;13.694;2022-09-09T08:29:21;3.00;;;1.65;;
22240;SDS011;11289;52.524;13.694;2022-09-09T08:31:51;2.50;;;1.30;;
22240;SDS011;11289;52.524;13.694;2022-09-09T08:34:19;3.70;;;1.70;;
22240;SDS011;11289;52.524;13.694;2022-09-09T08:36:46;3.67;;;1.30;;
22240;SDS011;11289;52.524;13.694;2022-09-09T08:39:13;3.42;;;1.20;;
22240;SDS011;11289;52.524;13.694;2022-09-09T08:58:13;2.83;;;1.30;;
22240;SDS011;11289;52.524;13.694;2022-09-09T09:00:48;1.92;;;1.17;;
22240;SDS011;11289;52.524;13.694;2022-09-09T09:09:20;1.83;;;1.30;;
22240;SDS011;11289;52.524;13.694;2022-09-09T09:11:53;5.50;;;1.42;;
22240;SDS011;11289;52.524;13.694;2022-09-09T09:14:26;3.20;;;1.17;;
22240;SDS011;11289;52.524;13.694;2022-09-09T09:17:05;2.75;;;1.20;;
22240;SDS011;11289;52.524;13.694;2022-09-09T09:19:35;6.78;;;2.45;;
22240;SDS011;11289;52.524;13.694;2022-09-09T09:22:06;4.75;;;1.35;;
22240;SDS011;11289;52.524;13.694;2022-09-09T09:24:54;2.70;;;1.30;;
22240;SDS011;11289;52.524;13.694;2022-09-09T09:27:33;5.70;;;1.58;;
22240;SDS011;11289;52.524;13.694;2022-09-09T09:30:01;5.10;;;1.40;;
22240;SDS011;11289;52.524;13.694;2022-09-09T09:32:37;2.85;;;1.27;;
22240;SDS011;11289;52.524;13.694;2022-09-09T09:35:12;5.13;;;1.40;;
22240;SDS011;11289;52.524;13.694;2022-09-09T09:37:39;2.83;;;1.52;;
22240;SDS011;11289;52.524;13.694;2022-09-09T09:40:12;3.80;;;1.40;;
22240;SDS011;11289;52.524;13.694;2022-09-09T09:42:48;6.13;;;1.15;;
22240;SDS011;11289;52.524;13.694;2022-09-09T09:45:29;3.83;;;1.23;;
22240;SDS011;11289;52.524;13.694;2022-09-09T09:48:06;2.30;;;1.25;;
22240;SDS011;11289;52.524;13.694;2022-09-09T09:50:34;2.67;;;1.08;;
22240;SDS011;11289;52.524;13.694;2022-09-09T09:53:02;5.68;;;1.40;;
22240;SDS011;11289;52.524;13.694;2022-09-09T09:55:33;2.40;;;1.00;;
22240;SDS011;11289;52.524;13.694;2022-09-09T09:58:04;3.20;;;1.20;;
22240;SDS011;11289;52.524;13.694;2022-09-09T10:00:31;2.47;;;1.10;;
22240;SDS011;11289;52.524;13.694;2022-09-09T10:03:00;3.38;;;1.00;;
22240;SDS011;11289;52.524;13.694;2022-09-09T10:05:27;4.60;;;1.05;;
22240;SDS011;11289;52.524;13.694;2022-09-09T10:08:11;3.10;;;1.10;;
22240;SDS011;11289;52.524;13.694;2022-09-09T10:10:41;4.75;;;1.30;;
22240;SDS011;11289;52.524;13.694;2022-09-09T10:13:26;3.13;;;1.20;;
22240;SDS011;11289;52.524;13.694;2022-09-09T10:21:32;2.07;;;0.90;;
22240;SDS011;11289;52.524;13.694;2022-09-09T10:29:29;4.00;;;1.00;;
22240;SDS011;11289;52.524;13.694;2022-09-09T10:40:22;2.80;;;0.93;;
22240;SDS011;11289;52.524;13.694;2022-09-09T10:43:29;3.40;;;0.95;;
22240;SDS011;11289;52.524;13.694;2022-09-09T10:46:16;3.67;;;0.95;;
22240;SDS011;11289;52.524;13.694;2022-09-09T10:59:54;5.90;;;1.13;;
22240;SDS011;11289;52.524;13.694;2022-09-09T11:02:28;5.35;;;0.90;;
22240;SDS011;11289;52.524;13.694;2022-09-09T11:04:59;3.67;;;0.80;;
22240;SDS011;11289;52.524;13.694;2022-09-09T11:07:39;1.25;;;0.68;;
22240;SDS011;11289;52.524;13.694;2022-09-09T11:13:20;2.80;;;0.75;;
22240;SDS011;11289;52.524;13.694;2022-09-09T11:16:22;2.08;;;0.82;;
22240;SDS011;11289;52.524;13.694;2022-09-09T11:18:49;4.50;;;0.93;;
22240;SDS011;11289;52.524;13.694;2022-09-09T11:21:21;3.10;;;0.60;;
22240;SDS011;11289;52.524;13.694;2022-09-09T11:23:53;2.75;;;0.77;;
22240;SDS011;11289;52.524;13.694;2022-09-09T11:26:28;2.05;;;0.60;;
22240;SDS011;11289;52.524;13.694;2022-09-09T11:34:59;1.50;;;0.80;;
22240;SDS011;11289;52.524;13.694;2022-09-09T11:40:53;3.55;;;0.70;;
22240;SDS011;11289;52.524;13.694;2022-09-09T11:43:27;2.45;;;0.60;;
22240;SDS011;11289;52.524;13.694;2022-09-09T11:45:57;3.00;;;0.90;;
22240;SDS011;11289;52.524;13.694;2022-09-09T11:50:57;4.43;;;0.60;;
22240;SDS011;11289;52.524;13.694;2022-09-09T11:53:34;3.53;;;0.65;;
22240;SDS011;11289;52.524;13.694;2022-09-09T11:56:05;2.60;;;0.60;;
22240;SDS011;11289;52.524;13.694;2022-09-09T11:58:36;3.25;;;0.80;;
22240;SDS011;11289;52.524;13.694;2022-09-09T12:01:25;3.00;;;0.60;;
22240;SDS011;11289;52.524;13.694;2022-09-09T12:04:04;2.58;;;0.50;;
22240;SDS011;11289;52.524;13.694;2022-09-09T12:06:41;3.47;;;0.60;;
22240;SDS011;11289;52.524;13.694;2022-09-09T12:11:44;1.70;;;0.68;;
22240;SDS011;11289;52.524;13.694;2022-09-09T12:14:20;3.00;;;0.60;;
22240;SDS011;11289;52.524;13.694;2022-09-09T12:16:47;3.78;;;0.75;;
22240;SDS011;11289;52.524;13.694;2022-09-09T12:19:14;1.48;;;0.65;;
22240;SDS011;11289;52.524;13.694;2022-09-09T12:21:51;2.15;;;0.60;;
22240;SDS011;11289;52.524;13.694;2022-09-09T12:27:45;4.20;;;0.70;;
22240;SDS011;11289;52.524;13.694;2022-09-09T12:30:16;2.25;;;0.60;;
22240;SDS011;11289;52.524;13.694;2022-09-09T12:32:42;1.63;;;0.40;;
22240;SDS011;11289;52.524;13.694;2022-09-09T12:37:49;3.63;;;0.88;;
22240;SDS011;11289;52.524;13.694;2022-09-09T12:40:28;1.27;;;0.40;;
22240;SDS011;11289;52.524;13.694;2022-09-09T12:42:57;2.83;;;0.50;;
22240;SDS011;11289;52.524;13.694;2022-09-09T12:45:27;3.17;;;0.50;;
22240;SDS011;11289;52.524;13.694;2022-09-09T12:48:05;2.15;;;0.70;;
22240;SDS011;11289;52.524;13.694;2022-09-09T12:50:51;4.30;;;0.70;;
22240;SDS011;11289;52.524;13.694;2022-09-09T12:53:24;1.27;;;0.50;;
22240;SDS011;11289;52.524;13.694;2022-09-09T12:56:04;3.10;;;0.80;;
22240;SDS011;11289;52.524;13.694;2022-09-09T12:58:35;1.40;;;0.40;;
22240;SDS011;11289;52.524;13.694;2022-09-09T13:01:03;1.08;;;0.50;;
22240;SDS011;11289;52.524;13.694;2022-09-09T13:03:30;1.15;;;0.50;;
22240;SDS011;11289;52.524;13.694;2022-09-09T13:05:58;1.48;;;0.50;;
22240;SDS011;11289;52.524;13.694;2022-09-09T13:08:35;2.75;;;0.40;;
22240;SDS011;11289;52.524;13.694;2022-09-09T13:11:02;1.38;;;0.57;;
22240;SDS011;11289;52.524;13.694;2022-09-09T13:16:03;1.58;;;0.55;;
22240;SDS011;11289;52.524;13.694;2022-09-09T13:18:33;1.65;;;0.60;;
22240;SDS011;11289;52.524;13.694;2022-09-09T13:21:01;1.58;;;0.60;;
22240;SDS011;11289;52.524;13.694;2022-09-09T13:23:28;2.22;;;0.70;;
22240;SDS011;11289;52.524;13.694;2022-09-09T13:25:56;3.15;;;0.60;;
22240;SDS011;11289;52.524;13.694;2022-09-09T13:28:28;3.60;;;0.77;;
22240;SDS011;11289;52.524;13.694;2022-09-09T13:30:58;2.55;;;0.55;;
22240;SDS011;11289;52.524;13.694;2022-09-09T13:35:59;0.80;;;0.50;;
22240;SDS011;11289;52.524;13.694;2022-09-09T13:38:25;2.17;;;0.50;;
22240;SDS011;11289;52.524;13.694;2022-09-09T13:40:57;1.27;;;0.55;;
22240;SDS011;11289;52.524;13.694;2022-09-09T13:43:28;1.80;;;0.60;;
22240;SDS011;11289;52.524;13.694;2022-09-09T13:46:04;0.65;;;0.43;;
22240;SDS011;11289;52.524;13.694;2022-09-09T13:49:21;1.33;;;0.60;;
22240;SDS011;11289;52.524;13.694;2022-09-09T13:51:40;3.85;;;1.70;;
22240;SDS011;11289;52.524;13.694;2022-09-09T13:54:09;1.83;;;0.80;;
22240;SDS011;11289;52.524;13.694;2022-09-09T13:56:39;3.83;;;0.80;;
22240;SDS011;11289;52.524;13.694;2022-09-09T13:59:06;2.17;;;0.50;;
22240;SDS011;11289;52.524;13.694;2022-09-09T14:01:36;6.15;;;0.93;;
22240;SDS011;11289;52.524;13.694;2022-09-09T14:04:02;4.50;;;1.02;;
22240;SDS011;11289;52.524;13.694;2022-09-09T14:06:28;2.83;;;0.80;;
22240;SDS011;11289;52.524;13.694;2022-09-09T14:08:54;1.55;;;0.50;;
22240;SDS011;11289;52.524;13.694;2022-09-09T14:11:20;4.13;;;0.98;;
22240;SDS011;11289;52.524;13.694;2022-09-09T14:13:46;4.53;;;1.00;;
22240;SDS011;11289;52.524;13.694;2022-09-09T14:16:14;2.25;;;0.98;;
22240;SDS011;11289;52.524;13.694;2022-09-09T14:18:40;2.80;;;0.85;;
22240;SDS011;11289;52.524;13.694;2022-09-09T14:21:06;4.15;;;0.95;;
22240;SDS011;11289;52.524;13.694;2022-09-09T14:23:31;1.98;;;0.63;;
22240;SDS011;11289;52.524;13.694;2022-09-09T14:25:57;2.13;;;0.70;;
22240;SDS011;11289;52.524;13.694;2022-09-09T14:31:23;3.08;;;0.80;;
22240;SDS011;11289;52.524;13.694;2022-09-09T14:33:49;2.15;;;0.80;;
22240;SDS011;11289;52.524;13.694;2022-09-09T14:36:15;1.77;;;0.60;;
22240;SDS011;11289;52.524;13.694;2022-09-09T14:38:41;2.75;;;0.70;;
22240;SDS011;11289;52.524;13.694;2022-09-09T14:41:14;3.63;;;0.60;;
22240;SDS011;11289;52.524;13.694;2022-09-09T14:43:45;2.08;;;0.52;;
22240;SDS011;11289;52.524;13.694;2022-09-09T14:46:12;3.90;;;0.60;;
22240;SDS011;11289;52.524;13.694;2022-09-09T14:48:42;1.33;;;0.73;;
22240;SDS011;11289;52.524;13.694;2022-09-09T14:51:13;2.75;;;0.60;;
22240;SDS011;11289;52.524;13.694;2022-09-09T14:56:49;1.75;;;0.60;;
22240;SDS011;11289;52.524;13.694;2022-09-09T14:59:14;2.05;;;0.73;;
22240;SDS011;11289;52.524;13.694;2022-09-09T15:01:39;1.77;;;0.65;;
22240;SDS011;11289;52.524;13.694;2022-09-09T15:04:06;5.45;;;0.80;;
22240;SDS011;11289;52.524;13.694;2022-09-09T15:06:32;14.55;;;1.55;;
22240;SDS011;11289;52.524;13.694;2022-09-09T15:08:59;9.48;;;1.38;;
22240;SDS011;11289;52.524;13.694;2022-09-09T15:11:26;2.35;;;0.60;;
22240;SDS011;11289;52.524;13.694;2022-09-09T15:13:56;1.17;;;0.40;;
22240;SDS011;11289;52.524;13.694;2022-09-09T15:16:23;1.52;;;0.50;;
22240;SDS011;11289;52.524;13.694;2022-09-09T15:18:52;2.10;;;0.47;;
22240;SDS011;11289;52.524;13.694;2022-09-09T15:21:21;4.43;;;0.68;;
22240;SDS011;11289;52.524;13.694;2022-09-09T15:23:49;13.18;;;10.20;;
22240;SDS011;11289;52.524;13.694;2022-09-09T15:26:15;18.88;;;12.02;;
22240;SDS011;11289;52.524;13.694;2022-09-09T15:28:41;4.60;;;2.33;;
22240;SDS011;11289;52.524;13.694;2022-09-09T15:31:15;3.08;;;0.70;;
22240;SDS011;11289;52.524;13.694;2022-09-09T15:33:49;0.50;;;0.40;;
22240;SDS011;11289;52.524;13.694;2022-09-09T15:36:17;3.40;;;0.50;;
22240;SDS011;11289;52.524;13.694;2022-09-09T15:38:44;7.97;;;1.23;;
22240;SDS011;11289;52.524;13.694;2022-09-09T15:41:11;8.13;;;1.15;;
22240;SDS011;11289;52.524;13.694;2022-09-09T15:43:37;25.48;;;19.42;;
22240;SDS011;11289;52.524;13.694;2022-09-09T15:46:08;7.05;;;4.78;;
22240;SDS011;11289;52.524;13.694;2022-09-09T15:49:04;2.88;;;1.08;;
22240;SDS011;11289;52.524;13.694;2022-09-09T15:51:35;4.72;;;0.90;;
22240;SDS011;11289;52.524;13.694;2022-09-09T15:54:02;4.43;;;0.98;;
22240;SDS011;11289;52.524;13.694;2022-09-09T15:56:29;2.15;;;0.82;;
22240;SDS011;11289;52.524;13.694;2022-09-09T15:58:58;2.00;;;0.70;;
22240;SDS011;11289;52.524;13.694;2022-09-09T16:01:25;1.90;;;0.70;;
22240;SDS011;11289;52.524;13.694;2022-09-09T16:03:51;2.80;;;0.80;;
22240;SDS011;11289;52.524;13.694;2022-09-09T16:06:18;3.00;;;0.95;;
22240;SDS011;11289;52.524;13.694;2022-09-09T16:08:46;2.47;;;0.80;;
22240;SDS011;11289;52.524;13.694;2022-09-09T16:11:16;3.38;;;0.80;;
22240;SDS011;11289;52.524;13.694;2022-09-09T16:13:45;4.70;;;2.42;;
22240;SDS011;11289;52.524;13.694;2022-09-09T16:16:12;1.65;;;0.80;;
22240;SDS011;11289;52.524;13.694;2022-09-09T16:18:42;2.22;;;0.70;;
22240;SDS011;11289;52.524;13.694;2022-09-09T16:21:14;3.55;;;0.82;;
22240;SDS011;11289;52.524;13.694;2022-09-09T16:23:41;3.10;;;0.80;;
22240;SDS011;11289;52.524;13.694;2022-09-09T16:26:08;4.00;;;0.98;;
22240;SDS011;11289;52.524;13.694;2022-09-09T16:28:36;4.05;;;0.82;;
22240;SDS011;11289;52.524;13.694;2022-09-09T16:31:05;3.67;;;0.90;;
22240;SDS011;11289;52.524;13.694;2022-09-09T16:33:32;2.10;;;0.90;;
22240;SDS011;11289;52.524;13.694;2022-09-09T16:35:57;4.22;;;0.90;;
22240;SDS011;11289;52.524;13.694;2022-09-09T16:38:23;3.65;;;0.80;;
22240;SDS011;11289;52.524;13.694;2022-09-09T16:40:49;12.25;;;9.65;;
22240;SDS011;11289;52.524;13.694;2022-09-09T16:43:15;7.05;;;3.35;;
22240;SDS011;11289;52.524;13.694;2022-09-09T16:45:41;3.97;;;1.10;;
22240;SDS011;11289;52.524;13.694;2022-09-09T16:48:07;1.77;;;0.90;;
22240;SDS011;11289;52.524;13.694;2022-09-09T16:50:33;3.97;;;0.93;;
22240;SDS011;11289;52.524;13.694;2022-09-09T16:52:59;2.85;;;0.90;;
22240;SDS011;11289;52.524;13.694;2022-09-09T16:55:24;3.30;;;0.80;;
22240;SDS011;11289;52.524;13.694;2022-09-09T16:57:51;4.10;;;0.90;;
22240;SDS011;11289;52.524;13.694;2022-09-09T17:00:16;4.35;;;0.90;;
22240;SDS011;11289;52.524;13.694;2022-09-09T17:02:42;1.50;;;0.77;;
22240;SDS011;11289;52.524;13.694;2022-09-09T17:05:08;1.50;;;0.93;;
22240;SDS011;11289;52.524;13.694;2022-09-09T17:07:34;1.83;;;0.90;;
22240;SDS011;11289;52.524;13.694;2022-09-09T17:10:00;3.97;;;1.10;;
22240;SDS011;11289;52.524;13.694;2022-09-09T17:12:26;6.60;;;1.10;;